Aviation Digital Data Service (ADDS)

Output produced by METARs form (0015 UTC 23 March 2019)
found at http://www.aviationweather.gov/metar/data/
 
METAR text: ETNG 221850Z VRB01KT CAVOK 14/06 Q1026
Conditions at: ETNG (GEILENKIRCHEN(NA, DE) observed 1850 UTC 22 March 2019
Temperature: 14.0°C (57°F)
Dewpoint: 6.0°C (43°F) [RH = 58%]
Pressure (altimeter): 30.30 inches Hg (1026.0 mb)
Winds: variable direction winds at 1 MPH (1 knots; 0.5 m/s)
Visibility: 6 or more miles (10+ km)
Ceiling: ceiling and visibility are OK
Clouds: unknown
Weather: no significant weather observed at this time

METAR text: ETNG 221750Z 00000KT CAVOK 16/06 Q1026 NOSIG
Conditions at: ETNG (GEILENKIRCHEN(NA, DE) observed 1750 UTC 22 March 2019
Temperature: 16.0°C (61°F)
Dewpoint: 6.0°C (43°F) [RH = 51%]
Pressure (altimeter): 30.30 inches Hg (1026.0 mb)
Winds: calm
Visibility: 6 or more miles (10+ km)
Ceiling: ceiling and visibility are OK
Clouds: unknown
Weather: no significant weather observed at this time

METAR text: ETNG 221650Z 09007KT CAVOK 19/05 Q1026 NOSIG
Conditions at: ETNG (GEILENKIRCHEN(NA, DE) observed 1650 UTC 22 March 2019
Temperature: 19.0°C (66°F)
Dewpoint: 5.0°C (41°F) [RH = 40%]
Pressure (altimeter): 30.30 inches Hg (1026.0 mb)
Winds: from the E (90 degrees) at 8 MPH (7 knots; 3.6 m/s)
Visibility: 6 or more miles (10+ km)
Ceiling: ceiling and visibility are OK
Clouds: unknown
Weather: no significant weather observed at this time

METAR text: ETNG 221550Z 10004KT CAVOK 20/05 Q1026 NOSIG
Conditions at: ETNG (GEILENKIRCHEN(NA, DE) observed 1550 UTC 22 March 2019
Temperature: 20.0°C (68°F)
Dewpoint: 5.0°C (41°F) [RH = 37%]
Pressure (altimeter): 30.30 inches Hg (1026.0 mb)
Winds: from the E (100 degrees) at 5 MPH (4 knots; 2.1 m/s)
Visibility: 6 or more miles (10+ km)
Ceiling: ceiling and visibility are OK
Clouds: unknown
Weather: no significant weather observed at this time

METAR text: ETNG 221450Z 07005KT CAVOK 20/05 Q1026 NOSIG
Conditions at: ETNG (GEILENKIRCHEN(NA, DE) observed 1450 UTC 22 March 2019
Temperature: 20.0°C (68°F)
Dewpoint: 5.0°C (41°F) [RH = 37%]
Pressure (altimeter): 30.30 inches Hg (1026.0 mb)
Winds: from the ENE (70 degrees) at 6 MPH (5 knots; 2.6 m/s)
Visibility: 6 or more miles (10+ km)
Ceiling: ceiling and visibility are OK
Clouds: unknown
Weather: no significant weather observed at this time

METAR text: ETNG 221350Z 09007KT CAVOK 20/07 Q1027 NOSIG
Conditions at: ETNG (GEILENKIRCHEN(NA, DE) observed 1350 UTC 22 March 2019
Temperature: 20.0°C (68°F)
Dewpoint: 7.0°C (45°F) [RH = 43%]
Pressure (altimeter): 30.32 inches Hg (1027.0 mb)
Winds: from the E (90 degrees) at 8 MPH (7 knots; 3.6 m/s)
Visibility: 6 or more miles (10+ km)
Ceiling: ceiling and visibility are OK
Clouds: unknown
Weather: no significant weather observed at this time

METAR text: ETNG 221250Z 09007KT CAVOK 19/04 Q1028 NOSIG
Conditions at: ETNG (GEILENKIRCHEN(NA, DE) observed 1250 UTC 22 March 2019
Temperature: 19.0°C (66°F)
Dewpoint: 4.0°C (39°F) [RH = 37%]
Pressure (altimeter): 30.35 inches Hg (1028.0 mb)
Winds: from the E (90 degrees) at 8 MPH (7 knots; 3.6 m/s)
Visibility: 6 or more miles (10+ km)
Ceiling: ceiling and visibility are OK
Clouds: unknown
Weather: no significant weather observed at this time

METAR text: ETNG 221150Z 08005KT CAVOK 18/06 Q1029 NOSIG
Conditions at: ETNG (GEILENKIRCHEN(NA, DE) observed 1150 UTC 22 March 2019
Temperature: 18.0°C (64°F)
Dewpoint: 6.0°C (43°F) [RH = 45%]
Pressure (altimeter): 30.38 inches Hg (1029.0 mb)
Winds: from the E (80 degrees) at 6 MPH (5 knots; 2.6 m/s)
Visibility: 6 or more miles (10+ km)
Ceiling: ceiling and visibility are OK
Clouds: unknown
Weather: no significant weather observed at this time

METAR text: ETNG 221050Z 09005KT CAVOK 17/06 Q1030 NOSIG
Conditions at: ETNG (GEILENKIRCHEN(NA, DE) observed 1050 UTC 22 March 2019
Temperature: 17.0°C (63°F)
Dewpoint: 6.0°C (43°F) [RH = 48%]
Pressure (altimeter): 30.41 inches Hg (1030.0 mb)
Winds: from the E (90 degrees) at 6 MPH (5 knots; 2.6 m/s)
Visibility: 6 or more miles (10+ km)
Ceiling: ceiling and visibility are OK
Clouds: unknown
Weather: no significant weather observed at this time

METAR text: ETNG 220950Z 11004KT CAVOK 15/04 Q1030 NOSIG
Conditions at: ETNG (GEILENKIRCHEN(NA, DE) observed 0950 UTC 22 March 2019
Temperature: 15.0°C (59°F)
Dewpoint: 4.0°C (39°F) [RH = 48%]
Pressure (altimeter): 30.41 inches Hg (1030.0 mb)
Winds: from the ESE (110 degrees) at 5 MPH (4 knots; 2.1 m/s)
Visibility: 6 or more miles (10+ km)
Ceiling: ceiling and visibility are OK
Clouds: unknown
Weather: no significant weather observed at this time

METAR text: ETNG 220850Z 09004KT CAVOK 12/06 Q1031 NOSIG
Conditions at: ETNG (GEILENKIRCHEN(NA, DE) observed 0850 UTC 22 March 2019
Temperature: 12.0°C (54°F)
Dewpoint: 6.0°C (43°F) [RH = 67%]
Pressure (altimeter): 30.44 inches Hg (1031.0 mb)
Winds: from the E (90 degrees) at 5 MPH (4 knots; 2.1 m/s)
Visibility: 6 or more miles (10+ km)
Ceiling: ceiling and visibility are OK
Clouds: unknown
Weather: no significant weather observed at this time

METAR text: ETNG 220750Z 36002KT 5000 BR BKN330 07/06 Q1031 NOSIG
Conditions at: ETNG (GEILENKIRCHEN(NA, DE) observed 0750 UTC 22 March 2019
Temperature: 7.0°C (45°F)
Dewpoint: 6.0°C (43°F) [RH = 93%]
Pressure (altimeter): 30.44 inches Hg (1031.0 mb)
Winds: from the N (360 degrees) at 2 MPH (2 knots; 1.0 m/s)
Visibility: 3 miles ( 5 km)
Ceiling: 33000 feet AGL
Clouds: broken clouds at 33000 feet AGL
Weather: BR  (mist)

METAR text: ETNG 220710Z 00000KT 5000 BR BKN330 06/06 Q1030 NOSIG
Conditions at: ETNG (GEILENKIRCHEN(NA, DE) observed 0710 UTC 22 March 2019
Temperature: 6.0°C (43°F)
Dewpoint: 6.0°C (43°F) [RH = 100%]
Pressure (altimeter): 30.41 inches Hg (1030.0 mb)
Winds: calm
Visibility: 3 miles ( 5 km)
Ceiling: 33000 feet AGL
Clouds: broken clouds at 33000 feet AGL
Weather: BR  (mist)

METAR text: ETNG 220650Z 00000KT 4500 BR BKN330 03/03 Q1030 BECMG 5000
Conditions at: ETNG (GEILENKIRCHEN(NA, DE) observed 0650 UTC 22 March 2019
Temperature: 3.0°C (37°F)
Dewpoint: 3.0°C (37°F) [RH = 100%]
Pressure (altimeter): 30.41 inches Hg (1030.0 mb)
Winds: calm
Visibility: 2.80 miles (4.51 km)
Ceiling: 33000 feet AGL
Clouds: broken clouds at 33000 feet AGL
Weather: BR  (mist)

METAR text: ETNG 220607Z 00000KT 3000 BR SCT270 BKN330 03/02 Q1031 BECMG 5000
Conditions at: ETNG (GEILENKIRCHEN(NA, DE) observed 0607 UTC 22 March 2019
Temperature: 3.0°C (37°F)
Dewpoint: 2.0°C (36°F) [RH = 93%]
Pressure (altimeter): 30.44 inches Hg (1031.0 mb)
Winds: calm
Visibility: 1.86 miles (2.99 km)
Ceiling: 33000 feet AGL
Clouds: scattered clouds at 27000 feet AGL
broken clouds at 33000 feet AGL
Weather: BR  (mist)

METAR text: ETNG 220550Z 00000KT 2500 BCFG BR BKN250 02/02 Q1031 BECMG 5000
Conditions at: ETNG (GEILENKIRCHEN(NA, DE) observed 0550 UTC 22 March 2019
Temperature: 2.0°C (36°F)
Dewpoint: 2.0°C (36°F) [RH = 100%]
Pressure (altimeter): 30.44 inches Hg (1031.0 mb)
Winds: calm
Visibility: 1.55 miles (2.49 km)
Ceiling: 25000 feet AGL
Clouds: broken clouds at 25000 feet AGL
Weather: BCFG BR  (patches of fog, mist)

METAR text: ETNG 220450Z 12001KT 0600 FG SCT300 02/02 Q1031
Conditions at: ETNG (GEILENKIRCHEN(NA, DE) observed 0450 UTC 22 March 2019
Temperature: 2.0°C (36°F)
Dewpoint: 2.0°C (36°F) [RH = 100%]
Pressure (altimeter): 30.44 inches Hg (1031.0 mb)
Winds: from the ESE (120 degrees) at 1 MPH (1 knots; 0.5 m/s)
Visibility: 0.37 miles (0.60 km)
Ceiling: at least 12,000 feet AGL
Clouds: scattered clouds at 30000 feet AGL
Weather: FG  (fog)

METAR text: ETNG 220350Z 16002KT 0200 FG BKN001 03/03 Q1030
Conditions at: ETNG (GEILENKIRCHEN(NA, DE) observed 0350 UTC 22 March 2019
Temperature: 3.0°C (37°F)
Dewpoint: 3.0°C (37°F) [RH = 100%]
Pressure (altimeter): 30.41 inches Hg (1030.0 mb)
Winds: from the SSE (160 degrees) at 2 MPH (2 knots; 1.0 m/s)
Visibility: 0.12 miles (0.19 km)
Ceiling: 100 feet AGL
Clouds: broken clouds at 100 feet AGL
Weather: FG  (fog)

METAR text: ETNG 220250Z 21000KT 0200 FG BKN001 03/03 Q1031
Conditions at: ETNG (GEILENKIRCHEN(NA, DE) observed 0250 UTC 22 March 2019
Temperature: 3.0°C (37°F)
Dewpoint: 3.0°C (37°F) [RH = 100%]
Pressure (altimeter): 30.44 inches Hg (1031.0 mb)
Winds: missing
Visibility: 0.12 miles (0.19 km)
Ceiling: 100 feet AGL
Clouds: broken clouds at 100 feet AGL
Weather: FG  (fog)

METAR text: ETNG 220150Z 17001KT 1800 BCFG SCT001 04/03 Q1031
Conditions at: ETNG (GEILENKIRCHEN(NA, DE) observed 0150 UTC 22 March 2019
Temperature: 4.0°C (39°F)
Dewpoint: 3.0°C (37°F) [RH = 93%]
Pressure (altimeter): 30.44 inches Hg (1031.0 mb)
Winds: from the S (170 degrees) at 1 MPH (1 knots; 0.5 m/s)
Visibility: 1.12 miles (1.80 km)
Ceiling: at least 12,000 feet AGL
Clouds: scattered clouds at 100 feet AGL
Weather: BCFG  (patches of fog)

METAR text: ETNG 212350Z 22001KT 6000 05/04 Q1032
Conditions at: ETNG (GEILENKIRCHEN(NA, DE) observed 2350 UTC 21 March 2019
Temperature: 5.0°C (41°F)
Dewpoint: 4.0°C (39°F) [RH = 93%]
Pressure (altimeter): 30.47 inches Hg (1032.0 mb)
Winds: from the SW (220 degrees) at 1 MPH (1 knots; 0.5 m/s)
Visibility: 4 miles ( 6 km)
Ceiling: unknown
Clouds: missing
Weather: no significant weather observed at this time

METAR text: ETNG 212250Z 00000KT CAVOK 05/04 Q1032
Conditions at: ETNG (GEILENKIRCHEN(NA, DE) observed 2250 UTC 21 March 2019
Temperature: 5.0°C (41°F)
Dewpoint: 4.0°C (39°F) [RH = 93%]
Pressure (altimeter): 30.47 inches Hg (1032.0 mb)
Winds: calm
Visibility: 6 or more miles (10+ km)
Ceiling: ceiling and visibility are OK
Clouds: unknown
Weather: no significant weather observed at this time

METAR text: ETNG 212150Z 16001KT CAVOK 06/04 Q1032
Conditions at: ETNG (GEILENKIRCHEN(NA, DE) observed 2150 UTC 21 March 2019
Temperature: 6.0°C (43°F)
Dewpoint: 4.0°C (39°F) [RH = 87%]
Pressure (altimeter): 30.47 inches Hg (1032.0 mb)
Winds: from the SSE (160 degrees) at 1 MPH (1 knots; 0.5 m/s)
Visibility: 6 or more miles (10+ km)
Ceiling: ceiling and visibility are OK
Clouds: unknown
Weather: no significant weather observed at this time

METAR text: ETNG 212050Z 00000KT CAVOK 07/05 Q1032
Conditions at: ETNG (GEILENKIRCHEN(NA, DE) observed 2050 UTC 21 March 2019
Temperature: 7.0°C (45°F)
Dewpoint: 5.0°C (41°F) [RH = 87%]
Pressure (altimeter): 30.47 inches Hg (1032.0 mb)
Winds: calm
Visibility: 6 or more miles (10+ km)
Ceiling: ceiling and visibility are OK
Clouds: unknown
Weather: no significant weather observed at this time

METAR text: ETNG 211950Z 00000KT CAVOK 09/06 Q1032 NOSIG
Conditions at: ETNG (GEILENKIRCHEN(NA, DE) observed 1950 UTC 21 March 2019
Temperature: 9.0°C (48°F)
Dewpoint: 6.0°C (43°F) [RH = 81%]
Pressure (altimeter): 30.47 inches Hg (1032.0 mb)
Winds: calm
Visibility: 6 or more miles (10+ km)
Ceiling: ceiling and visibility are OK
Clouds: unknown
Weather: no significant weather observed at this time

METAR text: ETNG 211850Z 00000KT CAVOK 11/06 Q1032 NOSIG
Conditions at: ETNG (GEILENKIRCHEN(NA, DE) observed 1850 UTC 21 March 2019
Temperature: 11.0°C (52°F)
Dewpoint: 6.0°C (43°F) [RH = 71%]
Pressure (altimeter): 30.47 inches Hg (1032.0 mb)
Winds: calm
Visibility: 6 or more miles (10+ km)
Ceiling: ceiling and visibility are OK
Clouds: unknown
Weather: no significant weather observed at this time

METAR text: ETNG 211750Z 10002KT CAVOK 14/06 Q1032 NOSIG
Conditions at: ETNG (GEILENKIRCHEN(NA, DE) observed 1750 UTC 21 March 2019
Temperature: 14.0°C (57°F)
Dewpoint: 6.0°C (43°F) [RH = 58%]
Pressure (altimeter): 30.47 inches Hg (1032.0 mb)
Winds: from the E (100 degrees) at 2 MPH (2 knots; 1.0 m/s)
Visibility: 6 or more miles (10+ km)
Ceiling: ceiling and visibility are OK
Clouds: unknown
Weather: no significant weather observed at this time

METAR text: ETNG 211650Z 08004KT CAVOK 17/06 Q1032 NOSIG
Conditions at: ETNG (GEILENKIRCHEN(NA, DE) observed 1650 UTC 21 March 2019
Temperature: 17.0°C (63°F)
Dewpoint: 6.0°C (43°F) [RH = 48%]
Pressure (altimeter): 30.47 inches Hg (1032.0 mb)
Winds: from the E (80 degrees) at 5 MPH (4 knots; 2.1 m/s)
Visibility: 6 or more miles (10+ km)
Ceiling: ceiling and visibility are OK
Clouds: unknown
Weather: no significant weather observed at this time

METAR text: ETNG 211550Z 09004KT CAVOK 17/06 Q1032 NOSIG
Conditions at: ETNG (GEILENKIRCHEN(NA, DE) observed 1550 UTC 21 March 2019
Temperature: 17.0°C (63°F)
Dewpoint: 6.0°C (43°F) [RH = 48%]
Pressure (altimeter): 30.47 inches Hg (1032.0 mb)
Winds: from the E (90 degrees) at 5 MPH (4 knots; 2.1 m/s)
Visibility: 6 or more miles (10+ km)
Ceiling: ceiling and visibility are OK
Clouds: unknown
Weather: no significant weather observed at this time

METAR text: ETNG 211450Z 06004KT CAVOK 17/06 Q1033 NOSIG
Conditions at: ETNG (GEILENKIRCHEN(NA, DE) observed 1450 UTC 21 March 2019
Temperature: 17.0°C (63°F)
Dewpoint: 6.0°C (43°F) [RH = 48%]
Pressure (altimeter): 30.50 inches Hg (1033.0 mb)
Winds: from the ENE (60 degrees) at 5 MPH (4 knots; 2.1 m/s)
Visibility: 6 or more miles (10+ km)
Ceiling: ceiling and visibility are OK
Clouds: unknown
Weather: no significant weather observed at this time

METAR text: ETNG 211350Z 04004KT CAVOK 17/06 Q1033 NOSIG
Conditions at: ETNG (GEILENKIRCHEN(NA, DE) observed 1350 UTC 21 March 2019
Temperature: 17.0°C (63°F)
Dewpoint: 6.0°C (43°F) [RH = 48%]
Pressure (altimeter): 30.50 inches Hg (1033.0 mb)
Winds: from the NE (40 degrees) at 5 MPH (4 knots; 2.1 m/s)
Visibility: 6 or more miles (10+ km)
Ceiling: ceiling and visibility are OK
Clouds: unknown
Weather: no significant weather observed at this time

METAR text: ETNG 211250Z 04004KT CAVOK 16/06 Q1034 NOSIG
Conditions at: ETNG (GEILENKIRCHEN(NA, DE) observed 1250 UTC 21 March 2019
Temperature: 16.0°C (61°F)
Dewpoint: 6.0°C (43°F) [RH = 51%]
Pressure (altimeter): 30.53 inches Hg (1034.0 mb)
Winds: from the NE (40 degrees) at 5 MPH (4 knots; 2.1 m/s)
Visibility: 6 or more miles (10+ km)
Ceiling: ceiling and visibility are OK
Clouds: unknown
Weather: no significant weather observed at this time

Forecast for: ETNG (GEILENKIRCHEN(NA, DE)
Text: TAF ETNG 221700Z 2218/2309 24005KT CAVOK
Forecast period: 1800 UTC 22 March 2019 to 0100 UTC 23 March 2019
Forecast type: FROM: standard forecast or significant change
Winds: from the WSW (240 degrees) at 6 MPH (5 knots; 2.6 m/s)
Visibility: 6 or more miles 10+ km)
Ceiling: unknown
Clouds: missing
Weather: NSW  (no significant weather)
Text: TEMPO 2218/2306 VRB03KT
Forecast period: 1800 UTC 22 March 2019 to 0600 UTC 23 March 2019
Forecast type: TEMPORARY: The following changes expected for less than half the time period
Winds: variable direction winds at 3 MPH (3 knots; 1.5 m/s)
Visibility: missing
Ceiling: unknown
Clouds: missing
Weather: no significant weather forecast for this period
Text: BECMG 2301/2304 32005KT 2500 BR BKN008
Forecast period: 0100 to 0900 UTC 23 March 2019
Forecast type: BECOMING: Conditions expected to become as follows by 0400 UTC 23 March 2019
Winds: from the NW (320 degrees) at 6 MPH (5 knots; 2.6 m/s)
Visibility: 1.55 miles (2.49 km)
Ceiling: 800 feet AGL
Clouds: broken clouds at 800 feet AGL
Weather: BR  (mist)
Text: TEMPO 2304/2308 0400 FG BKN002
Forecast period: 0400 to 0800 UTC 23 March 2019
Forecast type: TEMPORARY: The following changes expected for less than half the time period
Visibility: 0.25 miles (0.40 km)
Ceiling: 200 feet AGL
Clouds: broken clouds at 200 feet AGL
Weather: FG  (fog)